KJOT/JOT METAR and TAF weather

Enter ICAO airport designator
Station Type Date Time Source
KJOT METAR 2019/08/19 22:35 UTC NOAA

KJOT 192235Z AUTO 20003KT 10SM CLR 30/23 A2998 RMK AO2 LTG DSNT SW AND W T02970227


Station Type Date Time Source
KJOT Decoded METAR 2019/08/19 22:35 UTC NOAA

Joliet, Joliet Regional Airport, IL, United States (KJOT) 41-31-05N 088-10-31W
Aug 19, 2019 - 06:35 PM EDT / 2019.08.19 2235 UTC
Wind: from the SSW (200 degrees) at 3 MPH (3 KT):0
Visibility: 10 mile(s):0
Sky conditions: clear
Weather: Lightning observed
Temperature: 85.5 F (29.7 C)
Heat index: 92.3 F (33.5 C):1
Dew Point: 72.9 F (22.7 C)
Relative Humidity: 66%
Pressure (altimeter): 29.98 in. Hg (1015 hPa)
ob: KJOT 192235Z AUTO 20003KT 10SM CLR 30/23 A2998 RMK AO2 LTG DSNT SW AND W T02970227
cycle: 22

Station Type Date Time Source
KJOT TAF UTC NOAA

Error!

Example: see airport list